Inicio METAR Ruta Wind Satelite

Informe Meteorológico

Fecha: 2020/07/02 01:57:54 Local
2020.07.02 06:57 UTC


Estado: VENCIDO
Operación:VFR
Santa Marta / Simon Bolivar, Colombia (SKSM) 11-08N 074-14W 14M
2020.07.01 2000 UTC
Wind: from the NNW (330 degrees) at 7 MPH (6 KT):0
Visibility: greater than 7 mile(s):0
Sky conditions: mostly cloudy
Temperature: 93 F (34 C)
Heat index: 104.5 F (40.3 C):1
Dew Point: 75 F (24 C)
Relative Humidity: 56%
Pressure (altimeter): 29.8 in. Hg (1009 hPa)
ob: SKSM 012000Z 33006KT 9999 FEW020 BKN200 34/24 A2980
cycle: 20

SKSM 011900Z 32007KT 9999 FEW020 BKN200 32/25 A2983
SKSM 011800Z 30005KT 9999 FEW020 BKN200 33/25 A2985
SKSM 011700Z 33007KT 9999 FEW020 BKN200 31/25 A2986
SKSM 011600Z 34008KT 9999 FEW020 BKN200 32/25 A2987
SKSM 011500Z 29004KT 9999 FEW020 BKN200 31/25 A2989